createdAt,value
2023-04-23T00:00:12.534Z,7.53
2023-04-23T00:03:15.488Z,7.52
2023-04-23T00:06:20.216Z,7.47
2023-04-23T00:09:22.926Z,7.43
2023-04-23T00:12:25.208Z,7.39
2023-04-23T00:15:21.319Z,7.38
2023-04-23T00:18:01.370Z,7.39
2023-04-23T00:20:54.052Z,7.40
2023-04-23T00:23:47.290Z,7.41
2023-04-23T00:26:39.999Z,7.45
2023-04-23T00:29:26.168Z,7.50
2023-04-23T00:32:19.080Z,7.57
2023-04-23T00:35:14.205Z,7.59
2023-04-23T00:38:09.998Z,7.56
2023-04-23T00:41:02.706Z,7.53
2023-04-23T00:43:59.557Z,7.48
2023-04-23T00:46:54.254Z,7.41
2023-04-23T00:49:47.367Z,7.36
2023-04-23T00:52:41.119Z,7.30
2023-04-23T00:55:34.739Z,7.24
2023-04-23T00:58:27.769Z,7.20
2023-04-23T01:01:24.066Z,7.14
2023-04-23T01:04:19.125Z,7.04
2023-04-23T01:07:13.282Z,6.99
2023-04-23T01:10:08.075Z,6.97
2023-04-23T01:13:03.093Z,6.97
2023-04-23T01:15:56.452Z,6.97
2023-04-23T01:18:49.635Z,6.99
2023-04-23T01:21:43.516Z,6.96
2023-04-23T01:24:40.122Z,6.90
2023-04-23T01:27:36.478Z,6.84
2023-04-23T01:30:31.872Z,6.78
2023-04-23T01:33:27.616Z,6.75
2023-04-23T01:36:20.935Z,6.72
2023-04-23T01:39:13.572Z,6.68
2023-04-23T01:42:03.462Z,6.64
2023-04-23T01:44:49.856Z,6.62
2023-04-23T01:47:43.236Z,6.58
2023-04-23T01:50:37.297Z,6.56
2023-04-23T01:53:29.757Z,6.56
2023-04-23T01:56:26.771Z,6.58
2023-04-23T01:59:19.621Z,6.61
2023-04-23T02:02:14.041Z,6.60
2023-04-23T02:05:11.437Z,6.58
2023-04-23T02:08:08.745Z,6.57
2023-04-23T02:11:02.210Z,6.55
2023-04-23T02:13:57.110Z,6.52
2023-04-23T02:16:49.813Z,6.49
2023-04-23T02:19:35.902Z,6.46
2023-04-23T02:22:29.615Z,6.42
2023-04-23T02:25:22.479Z,6.41
2023-04-23T02:28:15.199Z,6.36
2023-04-23T02:31:08.737Z,6.33
2023-04-23T02:34:03.695Z,6.33
2023-04-23T02:36:58.086Z,6.34
2023-04-23T02:39:51.764Z,6.37
2023-04-23T02:42:45.391Z,6.44
2023-04-23T02:45:40.436Z,6.49
2023-04-23T02:48:34.236Z,6.52
2023-04-23T02:51:26.765Z,6.51
2023-04-23T02:54:21.766Z,6.48
2023-04-23T02:57:04.412Z,6.46
2023-04-23T02:59:57.485Z,6.43
2023-04-23T03:02:50.068Z,6.38
2023-04-23T03:05:44.270Z,6.30
2023-04-23T03:08:47.608Z,6.24
2023-04-23T03:11:41.390Z,6.19
2023-04-23T03:14:33.844Z,6.15
2023-04-23T03:17:27.952Z,6.12
2023-04-23T03:20:20.571Z,6.13
2023-04-23T03:23:13.010Z,6.18
2023-04-23T03:26:05.906Z,6.21
2023-04-23T03:28:58.355Z,6.24
2023-04-23T03:31:54.363Z,6.27
2023-04-23T03:34:47.248Z,6.30
2023-04-23T03:37:41.372Z,6.32
2023-04-23T03:40:27.080Z,6.30
2023-04-23T03:43:23.601Z,6.28
2023-04-23T03:46:33.146Z,6.27
2023-04-23T03:49:28.841Z,6.23
2023-04-23T03:52:22.390Z,6.21
2023-04-23T03:55:15.588Z,6.21
2023-04-23T03:58:09.451Z,6.22
2023-04-23T04:01:00.964Z,6.27
2023-04-23T04:03:56.687Z,6.33
2023-04-23T04:06:51.519Z,6.40
2023-04-23T04:09:44.781Z,6.48
2023-04-23T04:12:32.466Z,6.56
2023-04-23T04:15:27.113Z,6.65
2023-04-23T04:18:12.596Z,6.70
2023-04-23T04:20:55.981Z,6.76
2023-04-23T04:23:40.629Z,6.99
2023-04-23T04:26:32.606Z,7.97
2023-04-23T04:29:25.047Z,9.19
2023-04-23T04:32:22.542Z,10.13
2023-04-23T04:35:16.904Z,10.22
2023-04-23T04:38:14.155Z,10.23
2023-04-23T04:41:09.480Z,10.38
2023-04-23T04:44:04.782Z,10.97
2023-04-23T04:47:13.718Z,11.84
2023-04-23T04:50:11.301Z,12.79
2023-04-23T04:53:09.615Z,13.76
2023-04-23T04:55:55.413Z,14.71
2023-04-23T04:58:48.320Z,15.71
2023-04-23T05:01:44.942Z,16.59
2023-04-23T05:04:38.945Z,17.34
2023-04-23T05:07:32.493Z,17.94
2023-04-23T05:10:27.662Z,18.28
2023-04-23T05:13:04.150Z,18.05
2023-04-23T05:15:57.125Z,17.63
2023-04-23T05:18:50.597Z,17.77
2023-04-23T05:21:54.098Z,18.36
2023-04-23T05:24:47.807Z,18.91
2023-04-23T05:27:43.907Z,19.24
2023-04-23T05:30:40.134Z,19.56
2023-04-23T05:33:39.101Z,19.56
2023-04-23T05:36:37.404Z,19.06
2023-04-23T05:40:30.344Z,18.63
2023-04-23T05:42:46.225Z,18.09
2023-04-23T05:45:43.372Z,17.55
2023-04-23T05:48:40.353Z,17.19
2023-04-23T05:51:28.608Z,17.06
2023-04-23T05:54:21.137Z,17.39
2023-04-23T05:57:34.572Z,17.84
2023-04-23T06:00:28.048Z,18.23
2023-04-23T06:03:25.830Z,18.13
2023-04-23T06:06:26.454Z,17.61
2023-04-23T06:09:26.267Z,17.04
2023-04-23T06:12:30.827Z,16.48
2023-04-23T06:15:27.243Z,15.94
2023-04-23T06:18:26.256Z,15.58
2023-04-23T06:21:19.729Z,15.24
2023-04-23T06:24:12.392Z,15.08
2023-04-23T06:27:05.702Z,15.01
2023-04-23T06:29:58.308Z,15.01
2023-04-23T06:32:51.685Z,15.06
2023-04-23T06:35:34.740Z,15.07
2023-04-23T06:38:27.224Z,15.35
2023-04-23T06:41:24.323Z,16.01
2023-04-23T06:44:16.995Z,16.73
2023-04-23T06:47:15.910Z,17.50
2023-04-23T06:50:10.771Z,17.95
2023-04-23T06:53:04.194Z,18.23
2023-04-23T06:55:56.903Z,18.38
2023-04-23T06:58:49.637Z,18.61
2023-04-23T07:01:46.387Z,18.86
2023-04-23T07:04:41.997Z,19.11
2023-04-23T07:07:37.700Z,19.09
2023-04-23T07:10:22.333Z,19.34
2023-04-23T07:13:18.946Z,19.82
2023-04-23T07:16:14.171Z,20.04
2023-04-23T07:19:06.903Z,20.03
2023-04-23T07:21:59.972Z,20.03
2023-04-23T07:24:51.523Z,19.87
2023-04-23T07:27:35.149Z,19.90
2023-04-23T07:30:29.213Z,19.88
2023-04-23T07:33:23.088Z,19.73
2023-04-23T07:36:18.327Z,19.58
2023-04-23T07:39:13.613Z,19.40
2023-04-23T07:42:06.708Z,19.30
2023-04-23T07:44:59.233Z,19.25
2023-04-23T07:47:53.109Z,19.34
2023-04-23T07:50:49.157Z,19.41
2023-04-23T07:53:43.097Z,19.54
2023-04-23T07:56:39.276Z,19.70
2023-04-23T07:59:33.106Z,19.94
2023-04-23T08:02:27.811Z,20.24
2023-04-23T08:05:20.885Z,20.52
2023-04-23T08:08:15.306Z,20.75
2023-04-23T08:11:09.952Z,21.00
2023-04-23T08:13:55.231Z,21.02
2023-04-23T08:16:48.179Z,20.89
2023-04-23T08:19:41.297Z,20.81
2023-04-23T08:22:34.508Z,20.82
2023-04-23T08:25:52.331Z,20.87
2023-04-23T08:28:45.186Z,20.82
2023-04-23T08:31:41.265Z,20.84
2023-04-23T08:34:35.787Z,20.96
2023-04-23T08:37:31.531Z,21.13
2023-04-23T08:40:25.409Z,21.34
2023-04-23T08:43:16.865Z,21.56
2023-04-23T08:46:16.304Z,21.76
2023-04-23T08:49:15.249Z,22.02
2023-04-23T08:52:17.230Z,22.21
2023-04-23T08:55:16.081Z,22.41
2023-04-23T08:58:10.473Z,22.59
2023-04-23T09:01:04.821Z,22.67
2023-04-23T09:03:58.244Z,22.73
2023-04-23T09:06:50.991Z,22.83
2023-04-23T09:09:44.577Z,22.96
2023-04-23T09:12:28.703Z,23.05
2023-04-23T09:15:21.380Z,23.05
2023-04-23T09:18:15.283Z,23.15
2023-04-23T09:21:08.538Z,23.23
2023-04-23T09:24:06.386Z,23.37
2023-04-23T09:27:00.862Z,23.48
2023-04-23T09:29:59.762Z,23.64
2023-04-23T09:32:53.749Z,23.80
2023-04-23T09:35:30.925Z,23.99
2023-04-23T09:38:24.236Z,24.07
2023-04-23T09:41:28.172Z,24.03
2023-04-23T09:44:20.841Z,24.05
2023-04-23T09:47:15.956Z,24.15
2023-04-23T09:50:12.537Z,24.22
2023-04-23T09:53:06.903Z,24.35
2023-04-23T09:55:59.649Z,24.47
2023-04-23T09:58:52.734Z,24.49
2023-04-23T10:01:48.038Z,24.49
2023-04-23T10:04:42.625Z,24.56
2023-04-23T10:07:38.924Z,24.56
2023-04-23T10:10:32.208Z,24.57
2023-04-23T10:13:28.344Z,24.59
2023-04-23T10:16:25.473Z,24.56
2023-04-23T10:19:26.014Z,24.63
2023-04-23T10:22:21.453Z,24.89
2023-04-23T10:25:16.353Z,25.07
2023-04-23T10:28:13.383Z,24.97
2023-04-23T10:31:08.079Z,24.78
2023-04-23T10:34:06.917Z,24.89
2023-04-23T10:37:01.490Z,25.00
2023-04-23T10:40:01.468Z,25.11
2023-04-23T10:42:55.820Z,25.27
2023-04-23T10:45:50.979Z,25.40
2023-04-23T10:49:09.930Z,25.42
2023-04-23T10:52:19.607Z,25.55
2023-04-23T10:55:21.680Z,25.67
2023-04-23T10:58:15.052Z,25.77
2023-04-23T11:01:09.370Z,25.70
2023-04-23T11:04:30.049Z,25.55
2023-04-23T11:07:34.081Z,25.51
2023-04-23T11:10:27.910Z,25.54
2023-04-23T11:13:31.503Z,25.51
2023-04-23T11:16:46.380Z,25.53
2023-04-23T11:20:06.769Z,25.82
2023-04-23T11:24:10.567Z,25.90
2023-04-23T11:26:22.486Z,25.87
2023-04-23T11:29:17.230Z,25.83
2023-04-23T11:32:13.136Z,25.86
2023-04-23T11:35:28.791Z,26.02
2023-04-23T11:38:23.587Z,25.97
2023-04-23T11:41:34.415Z,25.88
2023-04-23T11:44:42.534Z,26.00
2023-04-23T11:47:41.553Z,26.14
2023-04-23T11:50:37.546Z,25.89
2023-04-23T11:53:35.433Z,25.63
2023-04-23T11:56:35.544Z,25.64
2023-04-23T11:59:56.153Z,25.56
2023-04-23T12:02:59.680Z,25.48
2023-04-23T12:06:07.918Z,25.48
2023-04-23T12:09:03.738Z,25.48
2023-04-23T12:11:58.484Z,25.55
2023-04-23T12:15:09.671Z,25.39
2023-04-23T12:18:13.270Z,25.42
2023-04-23T12:21:10.224Z,25.16
2023-04-23T12:24:06.914Z,24.86
2023-04-23T12:26:54.871Z,24.87
2023-04-23T12:29:48.758Z,24.75
2023-04-23T12:32:49.316Z,24.54
2023-04-23T12:35:54.244Z,24.53
2023-04-23T12:38:47.414Z,24.47
2023-04-23T12:41:40.245Z,24.46
2023-04-23T12:44:39.121Z,24.43
2023-04-23T12:47:52.407Z,24.38
2023-04-23T12:50:47.144Z,24.46
2023-04-23T12:53:44.558Z,24.49
2023-04-23T12:56:41.563Z,24.43
2023-04-23T12:59:38.153Z,24.31
2023-04-23T13:02:31.994Z,24.32
2023-04-23T13:05:25.342Z,24.30
2023-04-23T13:08:18.088Z,24.30
2023-04-23T13:11:11.543Z,24.32
2023-04-23T13:14:09.224Z,24.10
2023-04-23T13:17:10.734Z,23.88
2023-04-23T13:20:08.032Z,23.78
2023-04-23T13:23:01.999Z,23.83
2023-04-23T13:25:54.368Z,23.78
2023-04-23T13:28:48.220Z,23.74
2023-04-23T13:31:38.762Z,23.74
2023-04-23T13:35:21.328Z,23.71
2023-04-23T13:37:42.495Z,23.67
2023-04-23T13:40:46.804Z,23.60
2023-04-23T13:43:42.421Z,23.55
2023-04-23T13:46:45.066Z,23.54
2023-04-23T13:49:42.157Z,23.35
2023-04-23T13:53:01.056Z,23.09
2023-04-23T13:55:48.776Z,22.99
2023-04-23T13:58:46.407Z,22.95
2023-04-23T14:01:47.309Z,22.85
2023-04-23T14:04:41.719Z,22.79
2023-04-23T14:07:39.709Z,22.79
2023-04-23T14:10:32.598Z,22.77
2023-04-23T14:13:26.164Z,22.81
2023-04-23T14:16:20.576Z,22.82
2023-04-23T14:19:17.665Z,22.79
2023-04-23T14:22:11.027Z,22.72
2023-04-23T14:25:10.617Z,22.66
2023-04-23T14:28:17.863Z,22.60
2023-04-23T14:31:12.078Z,22.57
2023-04-23T14:34:06.521Z,22.52
2023-04-23T14:36:54.467Z,22.50
2023-04-23T14:39:48.640Z,22.46
2023-04-23T14:42:31.791Z,22.41
2023-04-23T14:45:26.425Z,22.39
2023-04-23T14:48:21.353Z,22.40
2023-04-23T14:51:14.004Z,22.42
2023-04-23T14:54:07.369Z,22.42
2023-04-23T14:56:59.726Z,22.44
2023-04-23T14:59:56.252Z,22.43
2023-04-23T15:02:46.479Z,22.31
2023-04-23T15:05:45.042Z,22.28
2023-04-23T15:08:34.960Z,22.24
2023-04-23T15:11:34.123Z,22.21
2023-04-23T15:14:34.696Z,22.17
2023-04-23T15:17:32.116Z,22.12
2023-04-23T15:21:19.427Z,22.08
2023-04-23T15:23:43.079Z,22.06
2023-04-23T15:26:36.499Z,22.03
2023-04-23T15:29:32.609Z,22.02
2023-04-23T15:32:27.898Z,22.01
2023-04-23T15:35:21.728Z,21.97
2023-04-23T15:38:19.781Z,21.94
2023-04-23T15:41:14.438Z,21.93
2023-04-23T15:44:15.282Z,21.92
2023-04-23T15:47:08.524Z,21.89
2023-04-23T15:50:07.827Z,21.84
2023-04-23T15:53:03.342Z,21.75
2023-04-23T15:56:12.912Z,21.64
2023-04-23T15:59:32.171Z,21.48
2023-04-23T16:02:35.426Z,21.34
2023-04-23T16:05:31.842Z,21.26
2023-04-23T16:08:25.007Z,21.20
2023-04-23T16:11:17.588Z,21.14
2023-04-23T16:14:13.643Z,21.11
2023-04-23T16:17:06.354Z,21.08
2023-04-23T16:21:50.238Z,21.05
2023-04-23T16:25:32.302Z,21.01
2023-04-23T16:28:00.113Z,20.94
2023-04-23T16:30:55.231Z,20.88
2023-04-23T16:33:47.874Z,20.83
2023-04-23T16:40:09.269Z,20.74
2023-04-23T16:43:01.817Z,20.67
2023-04-23T16:45:54.465Z,20.59
2023-04-23T16:49:02.060Z,20.52
2023-04-23T16:51:59.075Z,20.43
2023-04-23T16:54:53.110Z,20.37
2023-04-23T16:57:58.381Z,20.28
2023-04-23T17:00:48.661Z,20.18
2023-04-23T17:03:36.873Z,20.10
2023-04-23T17:06:31.830Z,19.99
2023-04-23T17:09:24.771Z,19.87
2023-04-23T17:12:24.484Z,19.76
2023-04-23T17:15:18.008Z,19.66
2023-04-23T17:18:31.786Z,19.55
2023-04-23T17:21:24.508Z,19.43
2023-04-23T17:24:08.430Z,19.33
2023-04-23T17:27:02.796Z,19.20
2023-04-23T17:29:56.080Z,19.05
2023-04-23T17:32:48.633Z,18.89
2023-04-23T17:35:42.326Z,18.73
2023-04-23T17:38:38.617Z,18.56
2023-04-23T17:41:51.482Z,18.42
2023-04-23T17:44:37.199Z,18.23
2023-04-23T17:47:30.115Z,18.02
2023-04-23T17:50:22.905Z,17.83
2023-04-23T17:53:48.751Z,17.66
2023-04-23T17:56:45.335Z,17.52
2023-04-23T17:59:43.623Z,17.39
2023-04-23T18:02:40.788Z,17.22
2023-04-23T18:05:34.033Z,17.03
2023-04-23T18:08:27.474Z,16.84
2023-04-23T18:11:21.279Z,16.63
2023-04-23T18:14:14.989Z,16.44
2023-04-23T18:17:06.523Z,16.26
2023-04-23T18:20:02.413Z,16.11
2023-04-23T18:26:27.070Z,15.82
2023-04-23T18:29:19.989Z,15.68
2023-04-23T18:32:20.988Z,15.55
2023-04-23T18:35:20.843Z,15.42
2023-04-23T18:38:32.748Z,15.32
2023-04-23T18:41:30.453Z,15.25
2023-04-23T18:44:24.376Z,15.19
2023-04-23T18:47:21.600Z,15.15
2023-04-23T18:50:50.067Z,15.08
2023-04-23T18:53:44.207Z,15.01
2023-04-23T18:57:37.836Z,14.99
2023-04-23T18:59:52.056Z,14.94
2023-04-23T19:02:48.733Z,14.87
2023-04-23T19:05:46.025Z,14.81
2023-04-23T19:08:41.548Z,14.76
2023-04-23T19:11:35.562Z,14.72
2023-04-23T19:14:28.166Z,14.71
2023-04-23T19:17:21.399Z,14.69
2023-04-23T19:20:15.948Z,14.67
2023-04-23T19:23:10.038Z,14.66
2023-04-23T19:26:03.944Z,14.65
2023-04-23T19:28:57.454Z,14.62
2023-04-23T19:31:50.822Z,14.60
2023-04-23T19:34:45.984Z,14.58
2023-04-23T19:37:39.217Z,14.56
2023-04-23T19:40:32.780Z,14.53
2023-04-23T19:43:25.647Z,14.48
2023-04-23T19:46:22.041Z,14.45
2023-04-23T19:49:17.256Z,14.44
2023-04-23T19:52:45.312Z,14.41
2023-04-23T19:55:49.911Z,14.39
2023-04-23T19:58:42.764Z,14.35
2023-04-23T20:01:39.099Z,14.32
2023-04-23T20:04:31.626Z,14.28
2023-04-23T20:07:25.547Z,14.24
2023-04-23T20:09:58.132Z,14.20
2023-04-23T20:12:50.763Z,14.16
2023-04-23T20:15:44.725Z,14.11
2023-04-23T20:18:39.292Z,14.08
2023-04-23T20:21:33.249Z,14.01
2023-04-23T20:24:27.365Z,13.97
2023-04-23T20:27:19.962Z,13.94
2023-04-23T20:30:16.670Z,13.92
2023-04-23T20:33:11.184Z,13.89
2023-04-23T20:36:32.664Z,13.89
2023-04-23T20:39:26.024Z,13.90
2023-04-23T20:42:18.454Z,13.89
2023-04-23T20:45:14.592Z,13.88
2023-04-23T20:48:08.258Z,13.81
2023-04-23T20:51:02.780Z,13.75
2023-04-23T20:53:57.716Z,13.73
2023-04-23T20:56:54.419Z,13.67
2023-04-23T20:59:47.919Z,13.62
2023-04-23T21:02:42.023Z,13.55
2023-04-23T21:05:45.043Z,13.42
2023-04-23T21:08:41.508Z,13.33
2023-04-23T21:11:38.020Z,13.30
2023-04-23T21:14:31.994Z,13.24
2023-04-23T21:17:24.806Z,13.15
2023-04-23T21:20:14.452Z,13.06
2023-04-23T21:23:09.022Z,12.97
2023-04-23T21:26:01.597Z,12.89
2023-04-23T21:28:44.096Z,12.77
2023-04-23T21:31:49.177Z,12.62
2023-04-23T21:34:44.366Z,12.52
2023-04-23T21:37:38.340Z,12.44
2023-04-23T21:40:34.196Z,12.35
2023-04-23T21:43:26.644Z,12.27
2023-04-23T21:46:19.141Z,12.20
2023-04-23T21:49:13.253Z,12.13
2023-04-23T21:52:06.815Z,12.02
2023-04-23T21:54:59.576Z,11.92
2023-04-23T21:57:52.228Z,11.87
2023-04-23T22:00:39.432Z,11.80
2023-04-23T22:03:38.521Z,11.72
2023-04-23T22:06:34.735Z,11.66
2023-04-23T22:09:27.425Z,11.59
2023-04-23T22:12:20.560Z,11.50
2023-04-23T22:15:15.370Z,11.43
2023-04-23T22:18:08.818Z,11.35
2023-04-23T22:21:01.833Z,11.32
2023-04-23T22:23:54.837Z,11.29
2023-04-23T22:26:47.685Z,11.24
2023-04-23T22:29:41.364Z,11.15
2023-04-23T22:32:34.059Z,11.04
2023-04-23T22:35:27.412Z,10.99
2023-04-23T22:38:20.002Z,10.96
2023-04-23T22:41:15.964Z,10.92
2023-04-23T22:43:58.380Z,10.88
2023-04-23T22:46:51.242Z,10.85
2023-04-23T22:49:46.802Z,10.82
2023-04-23T22:52:39.539Z,10.80
2023-04-23T22:55:32.498Z,10.79
2023-04-23T22:58:25.074Z,10.80
2023-04-23T23:01:20.560Z,10.79
2023-04-23T23:04:13.908Z,10.77
2023-04-23T23:07:07.253Z,10.75
2023-04-23T23:10:00.139Z,10.72
2023-04-23T23:12:54.704Z,10.71
2023-04-23T23:15:50.301Z,10.70
2023-04-23T23:18:43.889Z,10.66
2023-04-23T23:21:36.516Z,10.62
2023-04-23T23:24:29.004Z,10.60
2023-04-23T23:27:21.778Z,10.56
2023-04-23T23:30:09.812Z,10.53
2023-04-23T23:33:02.438Z,10.51
2023-04-23T23:36:28.059Z,10.49
2023-04-23T23:39:22.081Z,10.44
2023-04-23T23:42:16.417Z,10.35
2023-04-23T23:45:12.059Z,10.23
2023-04-23T23:48:06.008Z,10.13
2023-04-23T23:50:58.753Z,10.03
2023-04-23T23:53:51.156Z,9.97
2023-04-23T23:56:37.304Z,9.86
2023-04-23T23:59:29.686Z,9.72
